Time;durP1;ratioP1;P1;durP2;ratioP2;P2;SDS_P1;SDS_P2;PMS_P1;PMS_P2;Temp;Humidity;BMP_temperature;BMP_pressure;BME280_temperature;BME280_humidity;BME280_pressure;Samples;Min_cycle;Max_cycle;Signal;HPM_P1;HPM_P2
2021/10/23 00:01:27;;;;;;;32.20;18.12;;;;;;;9.44;56.65;99948.23;1759126;80;21015;-73
2021/10/23 00:03:54;;;;;;;30.12;17.17;;;;;;;9.35;56.88;99934.01;1767471;80;21854;-71
2021/10/23 00:06:21;;;;;;;34.18;18.32;;;;;;;9.28;57.27;99930.22;1782518;80;21039;-72
2021/10/23 00:08:49;;;;;;;32.63;18.12;;;;;;;9.23;57.44;99933.69;1751271;80;21024;-73
2021/10/23 00:11:15;;;;;;;31.37;17.73;;;;;;;9.17;57.63;99942.11;1778400;79;21047;-73
2021/10/23 00:13:43;;;;;;;32.23;17.55;;;;;;;9.08;57.81;99941.53;1779948;80;20941;-71
2021/10/23 00:16:10;;;;;;;33.18;17.15;;;;;;;8.99;58.14;99940.47;1769189;81;21811;-71
2021/10/23 00:18:36;;;;;;;28.07;15.85;;;;;;;8.93;58.09;99938.30;1771536;79;21459;-72
2021/10/23 00:21:03;;;;;;;27.93;15.55;;;;;;;8.92;58.06;99935.31;1769683;81;21391;-73
2021/10/23 00:23:30;;;;;;;27.13;15.28;;;;;;;8.90;58.03;99930.66;1767929;79;21024;-73
2021/10/23 00:25:56;;;;;;;31.12;15.58;;;;;;;8.89;58.03;99932.94;1768233;79;21071;-73
2021/10/23 00:28:22;;;;;;;28.95;16.10;;;;;;;8.86;58.15;99924.78;1766882;79;21833;-73
2021/10/23 00:30:49;;;;;;;28.95;15.85;;;;;;;8.84;58.21;99928.02;1780743;79;20950;-73
2021/10/23 00:33:15;;;;;;;27.77;15.15;;;;;;;8.84;58.31;99924.55;1782791;79;21039;-72
2021/10/23 00:35:42;;;;;;;28.42;15.90;;;;;;;8.80;58.34;99926.60;1778219;80;21007;-73
2021/10/23 00:38:09;;;;;;;29.75;16.42;;;;;;;8.78;58.33;99934.23;1777171;79;20953;-73
2021/10/23 00:40:35;;;;;;;30.72;16.05;;;;;;;8.78;58.31;99935.55;1773458;81;21833;-72
2021/10/23 00:43:02;;;;;;;28.15;16.17;;;;;;;8.77;58.33;99937.83;1780717;79;21325;-72
2021/10/23 00:45:29;;;;;;;30.40;16.30;;;;;;;8.77;58.40;99943.10;1775698;80;21351;-72
2021/10/23 00:47:56;;;;;;;34.55;16.25;;;;;;;8.77;58.43;99937.83;1750635;80;21056;-73
2021/10/23 00:50:23;;;;;;;28.87;16.00;;;;;;;8.75;58.44;99940.59;1768902;81;20989;-72
2021/10/23 00:52:50;;;;;;;29.95;16.87;;;;;;;8.74;58.50;99934.14;1758503;81;21781;-74
2021/10/23 00:55:17;;;;;;;31.12;16.00;;;;;;;8.71;58.58;99937.02;1759930;80;20996;-72
2021/10/23 00:57:43;;;;;;;33.60;16.12;;;;;;;8.69;58.57;99945.52;1758657;80;20999;-72
2021/10/23 01:00:11;;;;;;;34.20;16.27;;;;;;;8.66;58.66;99948.37;1754599;81;21219;-72
2021/10/23 01:02:38;;;;;;;26.77;15.35;;;;;;;8.65;58.69;99958.55;1755641;81;21075;-72
2021/10/23 01:05:06;;;;;;;26.60;15.45;;;;;;;8.60;58.75;99949.71;1756033;80;21807;-73
2021/10/23 01:07:35;;;;;;;28.30;15.70;;;;;;;8.57;58.77;99952.08;1757194;81;21044;-73
2021/10/23 01:10:09;;;;;;;27.82;15.72;;;;;;;8.54;58.89;99948.37;1750912;80;21403;-73
2021/10/23 01:12:41;;;;;;;31.68;15.25;;;;;;;8.46;59.14;99948.13;1772158;81;21028;-72
2021/10/23 01:15:25;;;;;;;29.60;15.48;;;;;;;8.42;59.32;99949.34;1753531;80;21056;-75
2021/10/23 01:17:53;;;;;;;26.37;15.08;;;;;;;8.40;59.38;99956.52;1751474;80;21714;-73
2021/10/23 01:20:20;;;;;;;25.77;15.03;;;;;;;8.35;59.50;99953.87;1760787;80;20936;-72
2021/10/23 01:22:48;;;;;;;30.45;15.68;;;;;;;8.32;59.55;99954.44;1760711;80;20996;-72
2021/10/23 01:25:15;;;;;;;26.48;15.18;;;;;;;8.32;59.54;99958.39;1758029;80;21026;-73
2021/10/23 01:27:42;;;;;;;31.30;14.87;;;;;;;8.33;59.52;99952.64;1776594;79;21074;-72
2021/10/23 01:30:11;;;;;;;27.45;15.72;;;;;;;8.30;59.56;99956.83;1756144;81;21826;-71
2021/10/23 01:32:37;;;;;;;27.15;14.25;;;;;;;8.28;59.77;99950.83;1757971;80;21055;-73
2021/10/23 01:35:07;;;;;;;28.77;15.13;;;;;;;8.27;59.78;99958.36;1766579;80;21053;-73
2021/10/23 01:37:44;;;;;;;27.48;15.43;;;;;;;8.23;59.80;99961.72;1744756;80;21371;-73
2021/10/23 01:40:18;;;;;;;26.25;15.03;;;;;;;8.23;59.78;99966.98;1743212;81;20993;-71
2021/10/23 01:42:46;;;;;;;27.32;14.95;;;;;;;8.21;59.83;99969.38;1738804;82;21858;-72
2021/10/23 01:45:12;;;;;;;26.30;14.98;;;;;;;8.20;59.80;99970.30;1750124;81;20985;-72
2021/10/23 01:47:41;;;;;;;28.55;15.32;;;;;;;8.21;59.77;99969.38;1750870;81;21436;-73
2021/10/23 01:50:23;;;;;;;27.87;14.28;;;;;;;8.21;59.73;99964.11;1736057;81;21001;-72
2021/10/23 01:52:52;;;;;;;27.48;14.33;;;;;;;8.20;59.68;99963.72;1730326;82;20941;-74
2021/10/23 01:55:18;;;;;;;27.60;14.38;;;;;;;8.19;59.74;99963.36;1741706;81;21806;-73
2021/10/23 01:57:46;;;;;;;26.57;14.23;;;;;;;8.17;59.87;99977.13;1755412;81;21014;-73
2021/10/23 02:00:15;;;;;;;28.40;15.43;;;;;;;8.15;59.88;99969.83;1749897;81;20980;-73
2021/10/23 02:02:43;;;;;;;28.12;14.80;;;;;;;8.14;59.83;99978.20;1757908;81;20989;-73
2021/10/23 02:05:10;;;;;;;26.97;14.53;;;;;;;8.16;59.78;99982.02;1759429;80;21621;-71
2021/10/23 02:07:36;;;;;;;25.10;14.35;;;;;;;8.16;59.89;99992.55;1748105;80;21808;-72
2021/10/23 02:10:07;;;;;;;23.30;14.00;;;;;;;8.12;60.01;99991.95;1769456;80;21012;-73
2021/10/23 02:12:34;;;;;;;25.45;12.53;;;;;;;8.07;60.07;100003.28;1758583;80;21044;-73
2021/10/23 02:15:01;;;;;;;17.90;10.60;;;;;;;8.02;60.19;100009.38;1768776;80;21013;-73
2021/10/23 02:17:28;;;;;;;20.35;10.90;;;;;;;7.99;60.02;100008.27;1766681;80;21006;-73
2021/10/23 02:19:55;;;;;;;15.90;7.65;;;;;;;8.04;59.67;100016.67;1760044;80;21835;-73
2021/10/23 02:22:21;;;;;;;11.73;5.67;;;;;;;8.18;59.13;100013.83;1742578;82;21440;-72
2021/10/23 02:24:49;;;;;;;13.62;5.28;;;;;;;8.44;58.22;100013.22;1740428;81;20981;-74
2021/10/23 02:27:15;;;;;;;8.75;4.80;;;;;;;8.79;56.91;100011.83;1735465;80;21001;-72
2021/10/23 02:29:42;;;;;;;10.60;5.47;;;;;;;9.20;55.86;100006.89;1722025;81;20980;-72
2021/10/23 02:32:08;;;;;;;12.20;5.00;;;;;;;9.54;55.00;100010.28;1723365;82;22167;-72
2021/10/23 02:34:35;;;;;;;9.33;4.87;;;;;;;9.76;54.23;100004.96;1751780;80;21498;-72
2021/10/23 02:37:03;;;;;;;10.70;5.17;;;;;;;9.90;53.58;100010.41;1770211;80;21055;-71
2021/10/23 02:39:31;;;;;;;10.13;5.62;;;;;;;10.02;53.47;100012.02;1757695;81;20954;-71
2021/10/23 02:41:57;;;;;;;10.60;5.22;;;;;;;10.08;52.99;100014.17;1766364;80;21008;-72
2021/10/23 02:44:23;;;;;;;11.38;5.17;;;;;;;10.12;52.43;100014.73;1771100;81;21866;-72
2021/10/23 02:46:50;;;;;;;13.80;5.33;;;;;;;10.14;52.10;100001.80;1768829;80;21523;-72
2021/10/23 02:49:17;;;;;;;10.72;5.40;;;;;;;10.19;52.06;100012.79;1757163;81;21427;-73
2021/10/23 02:51:45;;;;;;;13.20;5.50;;;;;;;10.23;51.95;100019.53;1776609;79;21100;-70
2021/10/23 02:54:11;;;;;;;13.03;4.90;;;;;;;10.26;51.91;100020.59;1781322;80;20997;-72
2021/10/23 02:56:39;;;;;;;13.83;5.03;;;;;;;10.28;51.71;100027.05;1769447;80;21579;-72
2021/10/23 02:59:06;;;;;;;12.65;5.67;;;;;;;10.28;51.72;100025.73;1756524;79;21474;-71
2021/10/23 03:01:32;;;;;;;10.25;4.90;;;;;;;10.29;51.45;100028.72;1746311;81;21424;-73
2021/10/23 03:03:59;;;;;;;10.58;5.28;;;;;;;10.29;51.42;100024.77;1760283;81;21412;-73
2021/10/23 03:06:25;;;;;;;9.38;5.03;;;;;;;10.30;51.37;100025.95;1749206;80;21008;-72
2021/10/23 03:08:52;;;;;;;8.53;4.75;;;;;;;10.31;51.39;100022.83;1759983;80;21797;-73
2021/10/23 03:11:21;;;;;;;9.20;4.53;;;;;;;10.31;51.40;100037.34;1779423;80;20977;-72
2021/10/23 03:13:47;;;;;;;10.05;4.97;;;;;;;10.28;51.35;100036.30;1777782;80;21032;-73
2021/10/23 03:16:15;;;;;;;11.85;5.33;;;;;;;10.26;51.34;100033.78;1768723;80;20996;-72
2021/10/23 03:18:42;;;;;;;10.98;5.67;;;;;;;10.26;51.22;100028.51;1773598;79;20984;-72
2021/10/23 03:21:09;;;;;;;9.93;5.00;;;;;;;10.27;51.29;100022.74;1745073;80;22606;-72
2021/10/23 03:23:35;;;;;;;11.55;5.70;;;;;;;10.27;51.24;100016.14;1782777;80;21008;-72
2021/10/23 03:26:03;;;;;;;9.40;5.03;;;;;;;10.26;51.32;100019.27;1771867;79;21035;-72
2021/10/23 03:28:31;;;;;;;9.58;4.92;;;;;;;10.24;51.25;100013.29;1770560;79;21039;-72
2021/10/23 03:30:58;;;;;;;9.80;4.92;;;;;;;10.23;51.18;100014.25;1770347;80;21007;-72
2021/10/23 03:33:24;;;;;;;11.78;5.45;;;;;;;10.21;51.32;100011.34;1766602;80;21873;-72
2021/10/23 03:35:51;;;;;;;10.20;5.12;;;;;;;10.18;51.30;100001.05;1766340;79;20948;-72
2021/10/23 03:38:18;;;;;;;11.10;5.22;;;;;;;10.14;51.30;99994.36;1758066;81;21395;-72
2021/10/23 03:40:46;;;;;;;12.23;5.72;;;;;;;10.12;51.38;99990.98;1742868;82;21494;-72
2021/10/23 03:43:13;;;;;;;12.80;5.45;;;;;;;10.09;51.42;99980.22;1761439;79;21354;-72
2021/10/23 03:45:39;;;;;;;12.35;5.58;;;;;;;10.06;51.48;99979.65;1780656;80;22493;-72
2021/10/23 03:48:07;;;;;;;13.00;4.85;;;;;;;10.02;51.54;99968.00;1768842;79;20993;-71
2021/10/23 03:50:34;;;;;;;11.30;5.20;;;;;;;9.98;51.66;99979.80;1776921;79;20951;-71
2021/10/23 03:53:00;;;;;;;11.20;5.45;;;;;;;9.94;51.78;99982.80;1785077;79;20948;-71
2021/10/23 03:55:29;;;;;;;11.65;5.20;;;;;;;9.89;51.85;99978.41;1784654;79;21445;-71
2021/10/23 03:57:55;;;;;;;12.45;5.45;;;;;;;9.83;51.94;99982.85;1786027;79;21839;-71
2021/10/23 04:00:23;;;;;;;12.40;5.37;;;;;;;9.77;52.11;99987.34;1782010;79;20921;-72
2021/10/23 04:02:50;;;;;;;10.25;5.65;;;;;;;9.69;52.32;99998.02;1786718;80;20948;-72
2021/10/23 04:05:16;;;;;;;11.70;5.60;;;;;;;9.60;52.53;100029.09;1773647;79;20999;-73
2021/10/23 04:07:43;;;;;;;9.25;5.28;;;;;;;9.47;52.87;100028.42;1752920;81;20944;-73
2021/10/23 04:10:10;;;;;;;8.68;4.78;;;;;;;9.38;53.05;100028.67;1760234;79;22600;-73
2021/10/23 04:12:38;;;;;;;10.00;4.87;;;;;;;9.32;53.20;100026.52;1783923;79;20980;-73
2021/10/23 04:15:06;;;;;;;9.23;5.60;;;;;;;9.30;53.34;100039.46;1762152;79;21331;-72
2021/10/23 04:17:34;;;;;;;11.15;6.00;;;;;;;9.30;53.38;100035.51;1770202;81;20967;-72
2021/10/23 04:20:00;;;;;;;8.93;5.40;;;;;;;9.29;53.39;100039.95;1770912;79;21034;-72
2021/10/23 04:22:26;;;;;;;11.33;6.30;;;;;;;9.30;53.50;100052.16;1776403;79;21786;-73
2021/10/23 04:24:53;;;;;;;12.40;5.65;;;;;;;9.28;53.55;100058.03;1782158;80;21483;-69
2021/10/23 04:27:21;;;;;;;9.93;5.47;;;;;;;9.27;53.65;100061.63;1786252;80;42773;-73
2021/10/23 04:29:47;;;;;;;10.93;6.15;;;;;;;9.27;53.64;100069.54;1782859;79;20993;-74
2021/10/23 04:32:14;;;;;;;10.78;5.92;;;;;;;9.27;53.64;100076.61;1780503;79;20996;-74
2021/10/23 04:34:42;;;;;;;11.93;5.58;;;;;;;9.24;53.73;100078.15;1785533;79;22601;-74
2021/10/23 04:37:09;;;;;;;13.32;6.08;;;;;;;9.22;53.80;100087.98;1780970;79;21015;-74
2021/10/23 04:39:36;;;;;;;11.40;5.22;;;;;;;9.18;53.87;100093.50;1777365;79;20995;-73
2021/10/23 04:42:04;;;;;;;11.68;6.42;;;;;;;9.13;53.98;100096.95;1758630;81;20963;-74
2021/10/23 04:44:30;;;;;;;9.43;5.80;;;;;;;9.09;54.07;100098.16;1772173;80;20989;-74
2021/10/23 04:46:57;;;;;;;16.05;6.15;;;;;;;9.07;54.17;100100.08;1760402;80;21820;-74
2021/10/23 04:49:23;;;;;;;12.85;6.45;;;;;;;9.05;54.20;100104.61;1760085;81;20990;-72
2021/10/23 04:51:51;;;;;;;10.08;5.45;;;;;;;9.03;54.37;100105.21;1747322;80;21057;-75
2021/10/23 04:54:17;;;;;;;11.28;5.60;;;;;;;9.01;54.38;100116.35;1766976;80;20988;-74
2021/10/23 04:56:44;;;;;;;11.95;5.67;;;;;;;8.98;54.43;100115.77;1760010;81;20947;-75
2021/10/23 04:59:10;;;;;;;14.13;5.95;;;;;;;8.93;54.52;100113.47;1762077;80;21769;-72
2021/10/23 05:01:36;;;;;;;16.00;5.87;;;;;;;8.89;54.59;100118.62;1756909;80;21063;-72
2021/10/23 05:04:03;;;;;;;12.30;5.65;;;;;;;8.84;54.71;100116.31;1755743;80;21474;-73
2021/10/23 05:06:31;;;;;;;10.98;5.28;;;;;;;8.83;54.80;100115.96;1765269;80;21048;-73
2021/10/23 05:08:58;;;;;;;9.80;5.62;;;;;;;8.81;54.97;100120.98;1791834;79;21510;-77
2021/10/23 05:11:24;;;;;;;10.15;5.62;;;;;;;8.80;55.12;100115.37;1758213;80;22216;-74
2021/10/23 05:13:51;;;;;;;11.03;5.70;;;;;;;8.77;55.16;100112.94;1755979;80;20980;-76
2021/10/23 05:16:17;;;;;;;11.30;5.75;;;;;;;8.74;55.29;100118.45;1760553;81;20989;-73
2021/10/23 05:18:49;;;;;;;16.12;7.55;;;;;;;8.73;55.39;100116.78;1760422;81;21462;-72
2021/10/23 05:21:17;;;;;;;14.70;7.00;;;;;;;8.71;55.53;100121.33;1807885;78;21507;-73
2021/10/23 05:23:46;;;;;;;12.90;6.50;;;;;;;8.68;55.60;100131.59;1807800;79;21833;-73
2021/10/23 05:26:14;;;;;;;17.35;7.87;;;;;;;8.68;55.71;100127.64;1807792;79;21132;-72
2021/10/23 05:28:40;;;;;;;12.65;7.20;;;;;;;8.69;55.77;100132.46;1781089;80;20970;-73
2021/10/23 05:31:06;;;;;;;13.93;7.17;;;;;;;8.73;55.86;100132.58;1780739;80;21024;-74
2021/10/23 05:33:33;;;;;;;12.20;6.95;;;;;;;8.77;55.90;100132.22;1771291;80;21044;-74
2021/10/23 05:35:59;;;;;;;12.63;6.33;;;;;;;8.84;55.91;100135.23;1779453;80;22167;-74
2021/10/23 05:38:26;;;;;;;12.68;6.42;;;;;;;8.89;55.95;100141.01;1756820;80;21064;-72
2021/10/23 05:40:52;;;;;;;12.73;7.17;;;;;;;8.94;55.95;100136.21;1780920;80;20963;-73
2021/10/23 05:43:18;;;;;;;15.78;9.03;;;;;;;8.98;56.05;100146.89;1780531;79;20993;-72
2021/10/23 05:45:46;;;;;;;14.73;7.37;;;;;;;8.97;56.48;100150.94;1757208;80;21039;-73
2021/10/23 05:48:13;;;;;;;13.65;6.72;;;;;;;8.88;56.78;100147.23;1769230;80;21819;-72
2021/10/23 05:50:39;;;;;;;14.93;7.28;;;;;;;8.82;57.12;100146.37;1778599;80;20973;-73
2021/10/23 05:53:05;;;;;;;14.85;7.47;;;;;;;8.76;57.30;100144.19;1771835;80;21031;-73
2021/10/23 05:55:32;;;;;;;14.15;7.03;;;;;;;8.73;57.38;100149.22;1756628;80;21075;-72
2021/10/23 05:58:01;;;;;;;16.48;8.10;;;;;;;8.75;57.36;100156.52;1758754;80;21059;-76
2021/10/23 06:00:28;;;;;;;24.85;9.20;;;;;;;8.76;57.41;100163.45;1760568;81;21834;-79
2021/10/23 06:02:56;;;;;;;20.27;9.70;;;;;;;8.78;57.44;100166.84;1756280;80;21028;-78
2021/10/23 06:05:23;;;;;;;18.52;9.90;;;;;;;8.79;57.54;100167.67;1759862;80;20949;-79
2021/10/23 06:07:49;;;;;;;18.82;9.68;;;;;;;8.79;57.76;100168.99;1757951;80;20969;-78
2021/10/23 06:10:18;;;;;;;20.62;10.05;;;;;;;8.79;58.02;100166.36;1761525;80;20985;-78
2021/10/23 06:12:45;;;;;;;20.08;10.20;;;;;;;8.80;58.27;100158.34;1770882;80;21836;-70
2021/10/23 06:15:13;;;;;;;19.40;10.10;;;;;;;8.86;58.32;100167.55;1754750;80;21071;-69
2021/10/23 06:17:40;;;;;;;21.57;10.58;;;;;;;8.92;58.43;100156.56;1775236;80;21396;-69
2021/10/23 06:20:10;;;;;;;20.32;10.60;;;;;;;8.96;58.41;100163.75;1777648;80;21029;-70
2021/10/23 06:22:37;;;;;;;22.80;10.93;;;;;;;8.98;58.36;100160.55;1758537;80;20996;-68
2021/10/23 06:25:06;;;;;;;20.95;10.40;;;;;;;9.03;58.38;100161.02;1785466;80;21059;-69
2021/10/23 06:27:33;;;;;;;14.25;8.38;;;;;;;9.07;58.27;100167.27;1756895;81;21072;-70
2021/10/23 06:30:00;;;;;;;28.07;10.00;;;;;;;9.09;58.21;100170.61;1762638;80;21040;-72
2021/10/23 06:32:26;;;;;;;14.93;8.25;;;;;;;9.13;58.28;100168.58;1758157;80;20993;-70
2021/10/23 06:34:52;;;;;;;20.70;9.53;;;;;;;9.19;58.38;100177.34;1748299;80;20981;-74
2021/10/23 06:37:19;;;;;;;23.18;10.80;;;;;;;9.24;58.25;100176.97;1758425;80;22173;-75
2021/10/23 06:39:45;;;;;;;19.20;10.20;;;;;;;9.24;58.34;100184.39;1753533;81;21013;-74
2021/10/23 06:42:12;;;;;;;21.97;10.68;;;;;;;9.26;58.50;100191.70;1754755;81;21095;-73
2021/10/23 06:44:39;;;;;;;21.45;10.72;;;;;;;9.24;58.55;100180.44;1758670;81;21027;-72
2021/10/23 06:47:07;;;;;;;19.65;10.85;;;;;;;9.24;58.56;100183.08;1754128;81;21077;-72
2021/10/23 06:49:33;;;;;;;20.08;10.05;;;;;;;9.22;58.67;100194.22;1742068;81;22295;-71
2021/10/23 06:52:00;;;;;;;21.55;10.00;;;;;;;9.21;58.75;100192.55;1749327;81;21021;-72
2021/10/23 06:54:28;;;;;;;18.90;9.93;;;;;;;9.22;58.77;100184.16;1729898;81;21525;-72
2021/10/23 06:56:54;;;;;;;19.17;9.90;;;;;;;9.23;58.84;100197.22;1726945;81;21479;-71
2021/10/23 06:59:20;;;;;;;23.22;10.08;;;;;;;9.25;58.86;100189.19;1733912;81;21033;-72
2021/10/23 07:01:47;;;;;;;23.12;10.38;;;;;;;9.25;58.85;100192.66;1748535;81;21598;-72
2021/10/23 07:04:15;;;;;;;26.77;10.38;;;;;;;9.24;58.91;100188.34;1756179;81;21048;-71
2021/10/23 07:06:41;;;;;;;21.75;9.65;;;;;;;9.24;59.02;100184.88;1708368;82;21041;-72
2021/10/23 07:09:08;;;;;;;23.77;9.55;;;;;;;9.24;59.27;100192.30;1737636;82;21532;-69
2021/10/23 07:11:34;;;;;;;20.97;8.50;;;;;;;9.26;59.18;100203.55;1749760;80;21038;-72
2021/10/23 07:14:01;;;;;;;14.43;7.55;;;;;;;9.28;59.29;100206.11;1742950;80;21771;-72
2021/10/23 07:16:29;;;;;;;13.83;6.97;;;;;;;9.30;59.13;100217.36;1724142;81;21048;-70
2021/10/23 07:18:56;;;;;;;12.90;7.20;;;;;;;9.28;59.11;100219.28;1738057;81;21091;-71
2021/10/23 07:21:24;;;;;;;17.30;7.30;;;;;;;9.27;59.14;100222.88;1737955;82;21530;-72
2021/10/23 07:23:53;;;;;;;16.60;7.87;;;;;;;9.26;59.09;100227.76;1737363;81;21575;-72
2021/10/23 07:26:19;;;;;;;15.85;7.80;;;;;;;9.25;59.27;100226.08;1737045;81;22208;-71
2021/10/23 07:28:47;;;;;;;21.17;8.20;;;;;;;9.24;59.45;100226.56;1736917;81;21079;-70
2021/10/23 07:31:15;;;;;;;17.65;9.25;;;;;;;9.21;59.82;100225.48;1727564;81;21473;-72
2021/10/23 07:33:41;;;;;;;19.60;9.98;;;;;;;9.16;60.19;100223.19;1707876;84;21526;-69
2021/10/23 07:36:08;;;;;;;19.60;9.95;;;;;;;9.09;60.49;100227.27;1734542;82;21032;-70
2021/10/23 07:38:37;;;;;;;19.80;10.38;;;;;;;9.04;60.69;100220.17;1737428;80;21794;-72
2021/10/23 07:41:04;;;;;;;25.55;11.70;;;;;;;9.02;60.87;100219.93;1765482;79;21304;-73
2021/10/23 07:43:31;;;;;;;26.30;11.50;;;;;;;8.96;60.96;100217.27;1765120;81;20980;-72
2021/10/23 07:45:57;;;;;;;28.65;11.33;;;;;;;8.92;61.15;100207.93;1765012;81;21528;-72
2021/10/23 07:48:25;;;;;;;21.33;10.48;;;;;;;8.91;61.31;100200.98;1766337;81;21392;-71
2021/10/23 07:50:51;;;;;;;21.12;10.90;;;;;;;8.93;61.39;100199.07;1766260;81;21791;-72
2021/10/23 07:53:19;;;;;;;21.57;11.15;;;;;;;8.98;61.33;100200.06;1766489;81;21047;-73
2021/10/23 07:55:45;;;;;;;18.52;10.23;;;;;;;9.06;61.28;100212.14;1764054;81;21015;-73
2021/10/23 07:58:12;;;;;;;17.25;10.32;;;;;;;9.14;61.16;100215.05;1736423;81;20979;-73
2021/10/23 08:00:38;;;;;;;20.45;10.28;;;;;;;9.24;61.14;100220.45;1758936;81;20999;-72
2021/10/23 08:03:05;;;;;;;19.17;10.40;;;;;;;9.35;60.87;100213.87;1766259;81;21836;-71
2021/10/23 08:05:35;;;;;;;22.42;9.98;;;;;;;9.43;60.38;100208.38;1765787;81;21035;-71
2021/10/23 08:08:03;;;;;;;18.80;9.28;;;;;;;9.51;58.94;100207.80;1763166;81;20991;-73
2021/10/23 08:10:31;;;;;;;20.60;8.50;;;;;;;9.61;58.19;100215.34;1762803;81;21004;-69
2021/10/23 08:13:00;;;;;;;16.10;8.25;;;;;;;9.71;57.04;100221.58;1762926;81;20996;-72
2021/10/23 08:15:28;;;;;;;12.47;6.10;;;;;;;9.82;55.35;100229.97;1762972;81;20988;-72
2021/10/23 08:17:56;;;;;;;11.20;5.28;;;;;;;9.93;53.47;100233.08;1766057;81;21071;-74
2021/10/23 08:20:25;;;;;;;12.90;5.72;;;;;;;10.06;52.90;100235.12;1766439;81;20952;-73
2021/10/23 08:22:53;;;;;;;11.45;6.05;;;;;;;10.15;52.00;100230.44;1762977;81;21002;-74
2021/10/23 08:25:20;;;;;;;18.62;7.25;;;;;;;10.24;51.29;100236.81;1761744;81;21374;-74
2021/10/23 08:27:47;;;;;;;14.50;7.40;;;;;;;10.31;50.80;100243.25;1761700;81;22195;-73
2021/10/23 08:30:17;;;;;;;13.32;6.03;;;;;;;10.38;50.16;100246.25;1761661;81;21519;-74
2021/10/23 08:32:44;;;;;;;12.30;6.03;;;;;;;10.45;49.52;100241.67;1784084;79;20959;-72
2021/10/23 08:35:14;;;;;;;16.52;6.40;;;;;;;10.53;49.60;100248.50;1780616;79;21371;-73
2021/10/23 08:37:41;;;;;;;13.22;5.28;;;;;;;10.60;49.29;100243.05;1764751;80;21368;-71
2021/10/23 08:40:09;;;;;;;7.87;4.17;;;;;;;10.66;48.16;100247.01;1747834;81;21468;-72
2021/10/23 08:42:35;;;;;;;8.60;4.10;;;;;;;10.71;48.25;100248.80;1770532;79;21012;-73
2021/10/23 08:45:06;;;;;;;10.68;4.30;;;;;;;10.75;47.62;100251.54;1790222;79;21105;-73
2021/10/23 08:47:38;;;;;;;9.95;4.15;;;;;;;10.79;47.17;100258.72;1760496;81;21045;-73
2021/10/23 08:50:07;;;;;;;10.82;4.00;;;;;;;10.80;46.57;100250.66;1760528;81;21036;-71
2021/10/23 08:52:35;;;;;;;9.65;4.05;;;;;;;10.84;46.56;100264.48;1762171;81;21820;-74
2021/10/23 08:55:02;;;;;;;10.10;4.37;;;;;;;10.87;46.33;100268.19;1764415;81;20930;-72
2021/10/23 08:57:28;;;;;;;10.68;4.17;;;;;;;10.92;46.24;100255.93;1764946;81;21059;-72
2021/10/23 08:59:56;;;;;;;10.38;4.25;;;;;;;10.97;46.47;100262.98;1764036;80;21472;-73
2021/10/23 09:02:23;;;;;;;9.50;4.10;;;;;;;11.02;45.34;100262.12;1763517;81;21285;-73
2021/10/23 09:04:56;;;;;;;10.50;4.85;;;;;;;11.04;45.27;100265.48;1754304;81;21030;-72
2021/10/23 09:07:25;;;;;;;10.13;4.37;;;;;;;11.04;45.05;100271.60;1759449;81;21395;-71
2021/10/23 09:10:02;;;;;;;12.25;4.37;;;;;;;11.03;45.41;100265.96;1761455;81;21718;-72
2021/10/23 09:12:32;;;;;;;11.65;4.50;;;;;;;11.04;45.47;100274.73;1762961;81;21036;-72
2021/10/23 09:15:16;;;;;;;9.85;4.70;;;;;;;11.04;45.12;100277.37;1762967;81;21027;-74
2021/10/23 09:17:51;;;;;;;8.63;4.40;;;;;;;11.03;45.17;100269.92;1781276;80;21845;-73
2021/10/23 09:20:23;;;;;;;9.33;4.40;;;;;;;11.03;45.18;100268.61;1723849;83;21031;-70
2021/10/23 09:22:51;;;;;;;7.83;3.60;;;;;;;11.07;45.51;100274.46;1726847;83;21458;-76
2021/10/23 09:25:28;;;;;;;10.18;4.28;;;;;;;11.13;45.03;100271.32;1727616;81;21039;-75
2021/10/23 09:28:08;;;;;;;9.40;4.40;;;;;;;11.20;45.06;100267.69;1722842;81;21055;-74
2021/10/23 09:30:42;;;;;;;10.00;4.58;;;;;;;11.28;44.87;100272.66;1743527;80;21850;-74
2021/10/23 09:33:12;;;;;;;10.55;5.00;;;;;;;11.39;44.89;100278.41;1765190;81;21039;-74
2021/10/23 09:35:47;;;;;;;9.40;4.62;;;;;;;11.49;44.39;100273.17;1731444;81;21072;-76
2021/10/23 09:38:17;;;;;;;13.15;4.58;;;;;;;11.54;44.19;100269.64;1753142;80;21599;-76
2021/10/23 09:40:45;;;;;;;7.65;3.87;;;;;;;11.59;44.23;100273.58;1753727;79;21565;-74
2021/10/23 09:43:17;;;;;;;9.00;4.40;;;;;;;11.66;43.99;100266.77;1759525;80;21830;-72
2021/10/23 09:46:01;;;;;;;10.75;4.30;;;;;;;11.69;44.08;100267.02;1765208;80;20979;-76
2021/10/23 09:48:53;;;;;;;12.55;4.40;;;;;;;11.75;43.89;100267.31;1754147;81;21008;-71
2021/10/23 09:51:29;;;;;;;7.03;4.00;;;;;;;11.83;43.85;100264.05;1752423;81;21047;-69
2021/10/23 09:54:02;;;;;;;9.23;3.77;;;;;;;11.93;43.86;100264.92;1754734;81;21430;-75
2021/10/23 09:56:36;;;;;;;9.93;3.85;;;;;;;12.08;43.60;100263.25;1778771;80;22470;-69
2021/10/23 09:59:09;;;;;;;9.48;4.12;;;;;;;12.17;43.26;100259.80;1765699;80;20920;-72
2021/10/23 10:01:43;;;;;;;8.90;3.95;;;;;;;12.24;43.42;100250.31;1777037;80;21035;-71
2021/10/23 10:04:09;;;;;;;8.30;3.95;;;;;;;12.33;42.90;100254.80;1755509;81;21422;-71
2021/10/23 10:06:48;;;;;;;7.25;3.62;;;;;;;12.41;42.54;100266.88;1731399;81;21048;-71
2021/10/23 10:09:19;;;;;;;8.80;3.92;;;;;;;12.44;42.18;100253.36;1752427;80;21012;-69
2021/10/23 10:11:49;;;;;;;8.80;3.77;;;;;;;12.44;42.12;100262.62;1750266;80;21023;-71
2021/10/23 10:14:20;;;;;;;8.43;3.50;;;;;;;12.41;42.39;100258.94;1758836;80;21514;-69
2021/10/23 10:16:51;;;;;;;9.53;4.10;;;;;;;12.38;42.26;100251.77;1777101;80;21069;-71
2021/10/23 10:19:20;;;;;;;7.50;3.90;;;;;;;12.33;42.47;100256.12;1735506;81;21046;-72
2021/10/23 10:21:47;;;;;;;11.40;4.42;;;;;;;12.30;42.52;100258.56;1709757;81;22482;-70
2021/10/23 10:24:24;;;;;;;8.78;4.62;;;;;;;12.31;42.83;100257.59;1764832;81;21015;-70
2021/10/23 10:27:02;;;;;;;10.10;4.67;;;;;;;12.37;43.18;100260.20;1763781;80;21055;-69
2021/10/23 10:29:44;;;;;;;8.30;4.35;;;;;;;12.43;42.79;100255.66;1739908;80;21021;-68
2021/10/23 10:32:23;;;;;;;8.63;4.25;;;;;;;12.49;42.76;100256.45;1761775;80;21012;-69
2021/10/23 10:40:30;;;;;;;9.08;4.30;;;;;;;12.55;42.10;100239.18;1764182;81;21055;-70
2021/10/23 10:43:00;;;;;;;7.22;3.72;;;;;;;12.71;42.25;100237.29;1762704;81;21066;-68
2021/10/23 10:45:48;;;;;;;10.00;3.90;;;;;;;12.90;41.71;100237.30;1761363;81;20995;-68
2021/10/23 10:48:34;;;;;;;7.22;3.72;;;;;;;13.10;41.10;100232.32;1762864;81;21844;-69
2021/10/23 10:51:11;;;;;;;9.35;3.75;;;;;;;13.35;40.73;100238.05;1762871;81;21057;-69
2021/10/23 10:53:41;;;;;;;12.05;4.10;;;;;;;13.44;40.36;100238.52;1763913;80;21063;-69
2021/10/23 10:56:16;;;;;;;10.65;5.05;;;;;;;13.43;40.74;100237.69;1765031;81;21004;-69
2021/10/23 10:58:58;;;;;;;9.08;4.72;;;;;;;13.40;40.58;100238.45;1764915;81;21414;-70
2021/10/23 11:01:30;;;;;;;9.20;4.50;;;;;;;13.32;40.67;100243.66;1766795;81;21079;-70
2021/10/23 11:04:08;;;;;;;9.50;4.58;;;;;;;13.25;40.90;100247.84;1765953;81;21418;-70
2021/10/23 11:06:49;;;;;;;8.25;4.40;;;;;;;13.27;41.05;100242.73;1745686;81;21049;-68
2021/10/23 11:09:25;;;;;;;10.38;4.40;;;;;;;13.42;40.41;100238.67;1766659;81;21070;-70
2021/10/23 11:12:05;;;;;;;7.25;3.42;;;;;;;13.63;40.41;100235.81;1764608;81;20960;-69
2021/10/23 11:14:36;;;;;;;8.10;3.80;;;;;;;13.87;39.88;100239.27;1752243;81;21834;-69
2021/10/23 11:17:14;;;;;;;7.97;3.67;;;;;;;14.00;39.00;100245.59;1778105;79;21380;-68
2021/10/23 11:19:51;;;;;;;8.75;3.75;;;;;;;14.14;38.88;100243.77;1797894;79;20980;-69
2021/10/23 11:22:31;;;;;;;9.18;3.50;;;;;;;14.41;38.70;100254.04;1797851;79;20964;-69
2021/10/23 11:25:11;;;;;;;8.40;3.58;;;;;;;14.60;38.37;100252.62;1754354;81;21039;-69
2021/10/23 11:27:46;;;;;;;7.35;3.58;;;;;;;14.79;37.97;100241.84;1765940;81;20981;-69
2021/10/23 11:30:27;;;;;;;7.53;3.40;;;;;;;14.99;37.55;100243.84;1764973;81;20963;-69
2021/10/23 11:33:04;;;;;;;9.95;3.80;;;;;;;15.14;37.81;100238.80;1736906;81;21431;-71
2021/10/23 11:35:51;;;;;;;7.25;3.50;;;;;;;15.38;36.97;100238.98;1766247;81;20994;-67
2021/10/23 11:38:25;;;;;;;14.87;4.25;;;;;;;15.41;36.80;100243.98;1766194;81;21526;-68